• Join FlightAware (Why Join?)
  • Login
  • US Flag 
06:05AM EDT


 

Airport Tracker/Info


-or-


 

Live Flight TrackerFlight Track Log ✈ N6345B ✈ 25-Jun-2013 ✈ KDAB - KSSI

Flight Track Log - Related Links

Times and Time Zones

All times are in EDT time to prevent confusion due to time zone crossing. See the N6345B flight status page for this flight to view local times or setup timezone preferences in your user account.

Time Position Orientation Groundspeed Altitude Reporting Facility
EDT Latitude Longitude Course Direction KTS MPH feet Rate Location/Type
03:36PM 29.1822 -81.0517 68° East 61 70 300  Level Jacksonville Center
03:37PM 29.1864 -81.0397 68° East 76 87 700 600 Climbing Jacksonville Center
03:38PM 29.2175 -81.0272 19° North 92 106 1,500 540 Climbing Jacksonville Center
03:39PM 29.2425 -81.0197 15° North 93 107 2,000 600 Climbing Jacksonville Center
03:40PM 29.2611 -81.0217 355° North 98 113 2,600 540 Climbing Jacksonville Center
03:41PM 29.2844 -81.0428 322° Northwest 99 114 3,100 120 Climbing Jacksonville Center
03:42PM 29.3097 -81.0661 321° Northwest 109 125 3,000  Descending Jacksonville Center
03:43PM 29.3289 -81.0847 320° Northwest 106 122 3,200 360 Climbing Jacksonville Center
03:44PM 29.3500 -81.0986 330° Northwest 97 112 3,700 480 Climbing Jacksonville Center
03:45PM 29.3753 -81.1219 321° Northwest 97 112 4,300 420 Climbing Jacksonville Center
03:46PM 29.3983 -81.1311 341° North 96 110 4,700 360 Climbing Jacksonville Center
03:47PM 29.4214 -81.1378 346° North 98 113 5,000 120 Climbing Jacksonville Center
03:48PM 29.4508 -81.1444 349° North 109 125 5,000  Level Jacksonville Center
03:49PM 29.4781 -81.1511 348° North 106 122 5,000  Level Jacksonville Center
03:50PM 29.5072 -81.1553 353° North 101 116 5,000  Level Jacksonville Center
03:51PM 29.5428 -81.1594 354° North 102 117 5,000  Level Jacksonville Center
03:52PM 29.5700 -81.1661 348° North 101 116 5,000  Level Jacksonville Center
03:53PM 29.5953 -81.1731 347° North 102 117 5,000  Level Jacksonville Center
03:54PM 29.6203 -81.1747 357° North 103 119 5,000  Level Jacksonville Center
03:55PM 29.6453 -81.1792 351° North 106 122 5,000  Level Jacksonville Center
03:56PM 29.6811 -81.1881 348° North 105 121 5,000  Level Jacksonville Center
03:57PM 29.7103 -81.1900 357° North 103 119 5,000 -60 Level Jacksonville Center
03:58PM 29.7417 -81.1992 346° North 103 119 4,900 -60 Descending Jacksonville Center
03:59PM 29.7731 -81.2033 353° North 104 120 4,900  Level Jacksonville Center
04:00PM 29.8025 -81.2100 349° North 102 117 4,900  Level Jacksonville Center
04:01PM 29.8233 -81.2144 350° North 99 114 5,000  Climbing Jacksonville Center
04:02PM 29.8547 -81.2161 357° North 103 119 5,000  Level Jacksonville Center
04:03PM 29.8819 -81.2253 344° North 103 119 5,000  Level Jacksonville Center
04:04PM 29.9092 -81.2272 356° North 103 119 5,000  Level Jacksonville Center
04:05PM 29.9364 -81.2364 344° North 104 120 5,000  Level Jacksonville Center
04:06PM 29.9697 -81.2406 354° North 108 124 5,000  Level Jacksonville Center
04:07PM 29.9992 -81.2472 349° North 106 122 5,000  Level Jacksonville Center
04:08PM 30.0264 -81.2517 352° North 110 127 5,000  Level Jacksonville Center
04:09PM 30.0536 -81.2561 352° North 105 121 5,000  Level Jacksonville Center
04:10PM 30.0828 -81.2603 353° North 108 124 5,000  Level Jacksonville Center
04:11PM 30.1122 -81.2669 349° North 106 122 5,000  Level Jacksonville Center
04:12PM 30.1414 -81.2736 349° North 108 124 5,000  Level Jacksonville Center
04:13PM 30.1728 -81.2803 350° North 107 123 5,000  Level Jacksonville Center
04:14PM 30.2042 -81.2847 353° North 108 124 5,000  Level Jacksonville Center
04:15PM 30.2294 -81.2914 347° North 110 127 5,000  Level Jacksonville Center
04:16PM 30.2606 -81.2958 353° North 106 122 5,000  Level Jacksonville Center
04:17PM 30.2922 -81.3025 350° North 101 116 5,000  Level Jacksonville Center
04:18PM 30.3256 -81.3092 350° North 104 120 5,000  Level Jacksonville Center
04:19PM 30.3528 -81.3158 348° North 105 121 5,000  Level Jacksonville Center
04:20PM 30.3800 -81.3178 356° North 104 120 5,000  Level Jacksonville Center
04:21PM 30.4050 -81.3247 347° North 105 121 5,000  Level Jacksonville Center
04:22PM 30.4344 -81.3289 353° North 106 122 5,000  Level Jacksonville Center
04:23PM 30.4678 -81.3333 353° North 104 120 5,000  Level Jacksonville Center
04:24PM 30.4950 -81.3425 344° North 107 123 5,000  Level Jacksonville Center
04:25PM 30.5244 -81.3467 353° North 107 123 5,000  Level Jacksonville Center
04:26PM 30.5517 -81.3536 348° North 101 116 5,000  Level Jacksonville Center
04:27PM 30.5808 -81.3581 353° North 103 119 5,000  Level Jacksonville Center
04:28PM 30.6081 -81.3647 348° North 103 119 5,000  Level Jacksonville Center
04:29PM 30.6375 -81.3692 353° North 104 120 5,000 -60 Level Jacksonville Center
04:31PM 30.6772 -81.3758 352° North 108 124 4,900 -60 Descending Jacksonville Center
04:32PM 30.7064 -81.3825 349° North 103 119 4,900  Level Jacksonville Center
04:33PM 30.7336 -81.3869 352° North 103 119 4,900  Level Jacksonville Center
04:34PM 30.7650 -81.3936 350° North 103 119 4,900  Level Jacksonville Center
04:35PM 30.7922 -81.4006 348° North 103 119 4,900 -300 Level Jacksonville Center
04:36PM 30.8217 -81.4047 353° North 103 119 4,400 -540 Descending Jacksonville Center
04:37PM 30.8489 -81.4092 352° North 103 119 3,900 -540 Descending Jacksonville Center
04:38PM 30.8781 -81.4161 348° North 103 119 3,400 -540 Descending Jacksonville Center
04:39PM 30.9053 -81.4206 352° North 103 119 2,900 -300 Descending Jacksonville Center
04:40PM 30.9325 -81.4272 348° North 103 119 2,900  Level Jacksonville Center
04:41PM 30.9617 -81.4317 353° North 103 119 2,900  Level Jacksonville Center
04:42PM 30.9869 -81.4361 351° North 103 119 2,900  Level Jacksonville Center